sensor_id;sensor_type;location;lat;lon;timestamp;temperature;humidity
21417;DHT22;10869;52.238;10.716;2024-01-07T00:02:11;-0.80;99.90
21417;DHT22;10869;52.238;10.716;2024-01-07T00:04:37;-0.90;99.90
21417;DHT22;10869;52.238;10.716;2024-01-07T00:07:04;-0.90;99.90
21417;DHT22;10869;52.238;10.716;2024-01-07T00:09:30;-0.90;99.90
21417;DHT22;10869;52.238;10.716;2024-01-07T00:11:56;-0.90;99.90
21417;DHT22;10869;52.238;10.716;2024-01-07T00:14:22;-0.90;99.90
21417;DHT22;10869;52.238;10.716;2024-01-07T00:16:47;-0.90;99.90
21417;DHT22;10869;52.238;10.716;2024-01-07T00:19:13;-0.90;99.90
21417;DHT22;10869;52.238;10.716;2024-01-07T00:21:39;-1.00;99.90
21417;DHT22;10869;52.238;10.716;2024-01-07T00:24:05;-1.00;99.90
21417;DHT22;10869;52.238;10.716;2024-01-07T00:26:30;-1.00;99.90
21417;DHT22;10869;52.238;10.716;2024-01-07T00:28:56;-1.00;99.90
21417;DHT22;10869;52.238;10.716;2024-01-07T00:31:22;-1.00;99.90
21417;DHT22;10869;52.238;10.716;2024-01-07T00:33:47;-1.00;99.90
21417;DHT22;10869;52.238;10.716;2024-01-07T00:36:13;-1.00;99.90
21417;DHT22;10869;52.238;10.716;2024-01-07T00:38:39;-1.00;99.90
21417;DHT22;10869;52.238;10.716;2024-01-07T00:41:05;-1.00;99.90
21417;DHT22;10869;52.238;10.716;2024-01-07T00:43:31;-1.10;99.90
21417;DHT22;10869;52.238;10.716;2024-01-07T00:45:56;-1.10;99.90
21417;DHT22;10869;52.238;10.716;2024-01-07T00:48:22;-1.10;99.90
21417;DHT22;10869;52.238;10.716;2024-01-07T00:50:48;-1.10;99.90
21417;DHT22;10869;52.238;10.716;2024-01-07T00:53:13;-1.10;99.90
21417;DHT22;10869;52.238;10.716;2024-01-07T00:55:39;-1.20;99.90
21417;DHT22;10869;52.238;10.716;2024-01-07T00:58:05;-1.20;99.90
21417;DHT22;10869;52.238;10.716;2024-01-07T01:00:30;-1.30;99.90
21417;DHT22;10869;52.238;10.716;2024-01-07T01:02:56;-1.20;99.90
21417;DHT22;10869;52.238;10.716;2024-01-07T01:05:22;-1.20;99.90
21417;DHT22;10869;52.238;10.716;2024-01-07T01:07:48;-1.20;99.90
21417;DHT22;10869;52.238;10.716;2024-01-07T01:10:13;-1.20;99.90
21417;DHT22;10869;52.238;10.716;2024-01-07T01:12:42;-1.20;99.90
21417;DHT22;10869;52.238;10.716;2024-01-07T01:15:09;-1.30;99.90
21417;DHT22;10869;52.238;10.716;2024-01-07T01:17:34;-1.30;99.90
21417;DHT22;10869;52.238;10.716;2024-01-07T01:20:00;-1.30;99.90
21417;DHT22;10869;52.238;10.716;2024-01-07T01:22:26;-1.30;99.90
21417;DHT22;10869;52.238;10.716;2024-01-07T01:24:51;-1.30;99.90
21417;DHT22;10869;52.238;10.716;2024-01-07T01:27:19;-1.40;99.90
21417;DHT22;10869;52.238;10.716;2024-01-07T01:29:45;-1.50;99.90
21417;DHT22;10869;52.238;10.716;2024-01-07T01:32:10;-1.50;99.90
21417;DHT22;10869;52.238;10.716;2024-01-07T01:34:36;-1.50;99.90
21417;DHT22;10869;52.238;10.716;2024-01-07T01:37:02;-1.50;99.90
21417;DHT22;10869;52.238;10.716;2024-01-07T01:39:29;-1.50;99.90
21417;DHT22;10869;52.238;10.716;2024-01-07T01:41:55;-1.60;99.90
21417;DHT22;10869;52.238;10.716;2024-01-07T01:44:21;-1.60;99.90
21417;DHT22;10869;52.238;10.716;2024-01-07T01:46:47;-1.60;99.90
21417;DHT22;10869;52.238;10.716;2024-01-07T01:49:13;-1.60;99.90
21417;DHT22;10869;52.238;10.716;2024-01-07T01:51:39;-1.70;99.90
21417;DHT22;10869;52.238;10.716;2024-01-07T01:54:05;-1.60;99.90
21417;DHT22;10869;52.238;10.716;2024-01-07T01:56:31;-1.60;99.90
21417;DHT22;10869;52.238;10.716;2024-01-07T01:58:59;-1.60;99.90
21417;DHT22;10869;52.238;10.716;2024-01-07T02:01:25;-1.60;99.90
21417;DHT22;10869;52.238;10.716;2024-01-07T02:03:51;-1.50;99.90
21417;DHT22;10869;52.238;10.716;2024-01-07T02:06:18;-1.50;99.90
21417;DHT22;10869;52.238;10.716;2024-01-07T02:08:44;-1.50;99.90
21417;DHT22;10869;52.238;10.716;2024-01-07T02:11:21;-1.60;99.90
21417;DHT22;10869;52.238;10.716;2024-01-07T02:13:47;-1.60;99.90
21417;DHT22;10869;52.238;10.716;2024-01-07T02:16:14;-1.70;99.90
21417;DHT22;10869;52.238;10.716;2024-01-07T02:18:41;-1.70;99.90
21417;DHT22;10869;52.238;10.716;2024-01-07T02:21:09;-1.70;99.90
21417;DHT22;10869;52.238;10.716;2024-01-07T02:23:35;-1.70;99.90
21417;DHT22;10869;52.238;10.716;2024-01-07T02:26:01;-1.70;99.90
21417;DHT22;10869;52.238;10.716;2024-01-07T02:28:27;-1.70;99.90
21417;DHT22;10869;52.238;10.716;2024-01-07T02:30:53;-1.70;99.90
21417;DHT22;10869;52.238;10.716;2024-01-07T02:33:18;-1.60;99.90
21417;DHT22;10869;52.238;10.716;2024-01-07T02:35:44;-1.60;99.90
21417;DHT22;10869;52.238;10.716;2024-01-07T02:38:10;-1.70;99.90
21417;DHT22;10869;52.238;10.716;2024-01-07T02:40:35;-1.70;99.90
21417;DHT22;10869;52.238;10.716;2024-01-07T02:43:01;-1.70;99.90
21417;DHT22;10869;52.238;10.716;2024-01-07T02:45:27;-1.70;99.90
21417;DHT22;10869;52.238;10.716;2024-01-07T02:47:53;-1.70;99.90
21417;DHT22;10869;52.238;10.716;2024-01-07T02:50:18;-1.70;99.90
21417;DHT22;10869;52.238;10.716;2024-01-07T02:52:44;-1.70;99.90
21417;DHT22;10869;52.238;10.716;2024-01-07T02:55:10;-1.80;99.90
21417;DHT22;10869;52.238;10.716;2024-01-07T02:57:36;-1.80;99.90
21417;DHT22;10869;52.238;10.716;2024-01-07T03:00:02;-1.80;99.90
21417;DHT22;10869;52.238;10.716;2024-01-07T03:02:28;-1.80;99.90
21417;DHT22;10869;52.238;10.716;2024-01-07T03:04:53;-1.80;99.90
21417;DHT22;10869;52.238;10.716;2024-01-07T03:07:19;-1.80;99.90
21417;DHT22;10869;52.238;10.716;2024-01-07T03:13:07;-1.80;99.90
21417;DHT22;10869;52.238;10.716;2024-01-07T03:15:32;-1.80;99.90
21417;DHT22;10869;52.238;10.716;2024-01-07T03:17:58;-1.90;99.90
21417;DHT22;10869;52.238;10.716;2024-01-07T03:20:24;-1.90;99.90
21417;DHT22;10869;52.238;10.716;2024-01-07T03:22:49;-1.90;99.90
21417;DHT22;10869;52.238;10.716;2024-01-07T03:25:15;-1.90;99.90
21417;DHT22;10869;52.238;10.716;2024-01-07T03:27:41;-1.90;99.90
21417;DHT22;10869;52.238;10.716;2024-01-07T03:30:07;-1.90;99.90
21417;DHT22;10869;52.238;10.716;2024-01-07T03:32:34;-1.90;99.90
21417;DHT22;10869;52.238;10.716;2024-01-07T03:35:00;-1.90;99.90
21417;DHT22;10869;52.238;10.716;2024-01-07T03:37:25;-1.90;99.90
21417;DHT22;10869;52.238;10.716;2024-01-07T03:39:51;-1.90;99.90
21417;DHT22;10869;52.238;10.716;2024-01-07T03:42:17;-2.00;99.90
21417;DHT22;10869;52.238;10.716;2024-01-07T03:44:43;-2.00;99.90
21417;DHT22;10869;52.238;10.716;2024-01-07T03:47:08;-2.00;99.90
21417;DHT22;10869;52.238;10.716;2024-01-07T03:49:36;-2.00;99.90
21417;DHT22;10869;52.238;10.716;2024-01-07T03:52:04;-2.00;99.90
21417;DHT22;10869;52.238;10.716;2024-01-07T03:54:30;-2.00;99.90
21417;DHT22;10869;52.238;10.716;2024-01-07T03:56:55;-2.10;99.90
21417;DHT22;10869;52.238;10.716;2024-01-07T03:59:21;-2.10;99.90
21417;DHT22;10869;52.238;10.716;2024-01-07T04:01:48;-2.00;99.90
21417;DHT22;10869;52.238;10.716;2024-01-07T04:04:14;-2.00;99.90
21417;DHT22;10869;52.238;10.716;2024-01-07T04:06:40;-1.90;99.90
21417;DHT22;10869;52.238;10.716;2024-01-07T04:09:05;-1.80;99.90
21417;DHT22;10869;52.238;10.716;2024-01-07T04:11:31;-1.80;99.90
21417;DHT22;10869;52.238;10.716;2024-01-07T04:13:57;-1.80;99.90
21417;DHT22;10869;52.238;10.716;2024-01-07T04:16:23;-1.80;99.90
21417;DHT22;10869;52.238;10.716;2024-01-07T04:18:48;-1.80;99.90
21417;DHT22;10869;52.238;10.716;2024-01-07T04:21:14;-1.80;99.90
21417;DHT22;10869;52.238;10.716;2024-01-07T04:23:40;-1.90;99.90
21417;DHT22;10869;52.238;10.716;2024-01-07T04:26:07;-1.80;99.90
21417;DHT22;10869;52.238;10.716;2024-01-07T04:28:33;-1.80;99.90
21417;DHT22;10869;52.238;10.716;2024-01-07T04:30:59;-1.80;99.90
21417;DHT22;10869;52.238;10.716;2024-01-07T04:33:24;-1.80;99.90
21417;DHT22;10869;52.238;10.716;2024-01-07T04:35:50;-1.80;99.90
21417;DHT22;10869;52.238;10.716;2024-01-07T04:38:16;-1.80;99.90
21417;DHT22;10869;52.238;10.716;2024-01-07T04:40:41;-1.80;99.90
21417;DHT22;10869;52.238;10.716;2024-01-07T04:43:07;-1.80;99.90
21417;DHT22;10869;52.238;10.716;2024-01-07T04:45:33;-1.80;99.90
21417;DHT22;10869;52.238;10.716;2024-01-07T04:47:58;-1.80;99.90
21417;DHT22;10869;52.238;10.716;2024-01-07T04:50:24;-1.90;99.90
21417;DHT22;10869;52.238;10.716;2024-01-07T04:52:50;-1.90;99.90
21417;DHT22;10869;52.238;10.716;2024-01-07T04:55:15;-1.80;99.90
21417;DHT22;10869;52.238;10.716;2024-01-07T04:57:41;-1.90;99.90
21417;DHT22;10869;52.238;10.716;2024-01-07T05:00:07;-1.90;99.90
21417;DHT22;10869;52.238;10.716;2024-01-07T05:02:33;-1.80;99.90
21417;DHT22;10869;52.238;10.716;2024-01-07T05:04:59;-1.90;99.90
21417;DHT22;10869;52.238;10.716;2024-01-07T05:07:24;-1.90;99.90
21417;DHT22;10869;52.238;10.716;2024-01-07T05:09:50;-1.90;99.90
21417;DHT22;10869;52.238;10.716;2024-01-07T05:12:16;-1.90;99.90
21417;DHT22;10869;52.238;10.716;2024-01-07T05:14:41;-2.00;99.90
21417;DHT22;10869;52.238;10.716;2024-01-07T05:17:09;-2.00;99.90
21417;DHT22;10869;52.238;10.716;2024-01-07T05:19:34;-2.00;99.90
21417;DHT22;10869;52.238;10.716;2024-01-07T05:22:00;-2.00;99.90
21417;DHT22;10869;52.238;10.716;2024-01-07T05:24:26;-2.10;99.90
21417;DHT22;10869;52.238;10.716;2024-01-07T05:26:52;-2.10;99.90
21417;DHT22;10869;52.238;10.716;2024-01-07T05:29:18;-2.10;99.90
21417;DHT22;10869;52.238;10.716;2024-01-07T05:31:44;-2.10;99.90
21417;DHT22;10869;52.238;10.716;2024-01-07T05:34:09;-2.10;99.90
21417;DHT22;10869;52.238;10.716;2024-01-07T05:36:35;-2.20;99.90
21417;DHT22;10869;52.238;10.716;2024-01-07T05:39:01;-2.20;99.90
21417;DHT22;10869;52.238;10.716;2024-01-07T05:41:27;-2.30;99.90
21417;DHT22;10869;52.238;10.716;2024-01-07T05:43:53;-2.30;99.90
21417;DHT22;10869;52.238;10.716;2024-01-07T05:46:19;-2.30;99.90
21417;DHT22;10869;52.238;10.716;2024-01-07T05:48:46;-2.40;99.90
21417;DHT22;10869;52.238;10.716;2024-01-07T05:51:13;-2.40;99.90
21417;DHT22;10869;52.238;10.716;2024-01-07T05:53:39;-2.50;99.90
21417;DHT22;10869;52.238;10.716;2024-01-07T05:56:05;-2.50;99.90
21417;DHT22;10869;52.238;10.716;2024-01-07T05:58:31;-2.50;99.90
21417;DHT22;10869;52.238;10.716;2024-01-07T06:00:57;-2.50;99.90
21417;DHT22;10869;52.238;10.716;2024-01-07T06:03:23;-2.60;99.90
21417;DHT22;10869;52.238;10.716;2024-01-07T06:05:48;-2.50;99.90
21417;DHT22;10869;52.238;10.716;2024-01-07T06:08:14;-2.60;99.90
21417;DHT22;10869;52.238;10.716;2024-01-07T06:10:40;-2.60;99.90
21417;DHT22;10869;52.238;10.716;2024-01-07T06:13:06;-2.60;99.90
21417;DHT22;10869;52.238;10.716;2024-01-07T06:15:32;-2.70;99.90
21417;DHT22;10869;52.238;10.716;2024-01-07T06:18:01;-2.60;99.90
21417;DHT22;10869;52.238;10.716;2024-01-07T06:20:27;-2.70;99.90
21417;DHT22;10869;52.238;10.716;2024-01-07T06:22:53;-2.70;99.90
21417;DHT22;10869;52.238;10.716;2024-01-07T06:28:43;-2.70;99.90
21417;DHT22;10869;52.238;10.716;2024-01-07T06:31:09;-2.80;99.90
21417;DHT22;10869;52.238;10.716;2024-01-07T06:33:35;-2.80;99.90
21417;DHT22;10869;52.238;10.716;2024-01-07T06:36:01;-2.80;99.90
21417;DHT22;10869;52.238;10.716;2024-01-07T06:38:27;-2.80;99.90
21417;DHT22;10869;52.238;10.716;2024-01-07T06:40:53;-2.80;99.90
21417;DHT22;10869;52.238;10.716;2024-01-07T06:43:27;-2.80;99.90
21417;DHT22;10869;52.238;10.716;2024-01-07T06:45:53;-2.80;99.90
21417;DHT22;10869;52.238;10.716;2024-01-07T06:48:22;-2.80;99.90
21417;DHT22;10869;52.238;10.716;2024-01-07T06:50:48;-2.80;99.90
21417;DHT22;10869;52.238;10.716;2024-01-07T06:53:13;-2.80;99.90
21417;DHT22;10869;52.238;10.716;2024-01-07T06:55:44;-2.80;99.90
21417;DHT22;10869;52.238;10.716;2024-01-07T06:58:10;-2.80;99.90
21417;DHT22;10869;52.238;10.716;2024-01-07T07:00:36;-2.80;99.90
21417;DHT22;10869;52.238;10.716;2024-01-07T07:03:06;-2.80;99.90
21417;DHT22;10869;52.238;10.716;2024-01-07T07:05:33;-2.80;99.90
21417;DHT22;10869;52.238;10.716;2024-01-07T07:07:59;-2.80;99.90
21417;DHT22;10869;52.238;10.716;2024-01-07T07:13:48;-2.70;99.90
21417;DHT22;10869;52.238;10.716;2024-01-07T07:19:39;-2.70;99.90
21417;DHT22;10869;52.238;10.716;2024-01-07T07:25:27;-2.70;99.90
21417;DHT22;10869;52.238;10.716;2024-01-07T07:31:15;-2.70;99.90
21417;DHT22;10869;52.238;10.716;2024-01-07T07:37:03;-2.60;99.90
21417;DHT22;10869;52.238;10.716;2024-01-07T07:39:31;-2.50;99.90
21417;DHT22;10869;52.238;10.716;2024-01-07T07:41:57;-2.50;99.90
21417;DHT22;10869;52.238;10.716;2024-01-07T07:44:42;-2.50;99.90
21417;DHT22;10869;52.238;10.716;2024-01-07T07:47:09;-2.50;99.90
21417;DHT22;10869;52.238;10.716;2024-01-07T07:52:59;-2.40;99.90
21417;DHT22;10869;52.238;10.716;2024-01-07T07:55:25;-2.40;99.90
21417;DHT22;10869;52.238;10.716;2024-01-07T07:57:52;-2.40;99.90
21417;DHT22;10869;52.238;10.716;2024-01-07T08:03:24;-2.40;99.90
21417;DHT22;10869;52.238;10.716;2024-01-07T08:05:49;-2.40;99.90
21417;DHT22;10869;52.238;10.716;2024-01-07T08:08:15;-2.30;99.90
21417;DHT22;10869;52.238;10.716;2024-01-07T08:14:04;-2.30;99.90
21417;DHT22;10869;52.238;10.716;2024-01-07T08:20:02;-2.20;99.90
21417;DHT22;10869;52.238;10.716;2024-01-07T08:22:30;-2.20;99.90
21417;DHT22;10869;52.238;10.716;2024-01-07T08:28:20;-2.10;99.90
21417;DHT22;10869;52.238;10.716;2024-01-07T08:34:13;-2.10;99.90
21417;DHT22;10869;52.238;10.716;2024-01-07T08:52:36;-2.00;99.90
21417;DHT22;10869;52.238;10.716;2024-01-07T08:58:04;-1.90;99.90
21417;DHT22;10869;52.238;10.716;2024-01-07T09:03:53;-1.90;99.90
21417;DHT22;10869;52.238;10.716;2024-01-07T09:09:41;-1.80;99.90
21417;DHT22;10869;52.238;10.716;2024-01-07T09:12:07;-1.80;99.90
21417;DHT22;10869;52.238;10.716;2024-01-07T09:14:33;-1.80;99.90
21417;DHT22;10869;52.238;10.716;2024-01-07T09:16:59;-1.80;99.90
21417;DHT22;10869;52.238;10.716;2024-01-07T09:19:25;-1.70;99.90
21417;DHT22;10869;52.238;10.716;2024-01-07T09:21:51;-1.70;99.90
21417;DHT22;10869;52.238;10.716;2024-01-07T09:24:22;-1.70;99.90
21417;DHT22;10869;52.238;10.716;2024-01-07T09:26:55;-1.70;99.90
21417;DHT22;10869;52.238;10.716;2024-01-07T09:29:22;-1.70;99.90
21417;DHT22;10869;52.238;10.716;2024-01-07T09:31:48;-1.70;99.90
21417;DHT22;10869;52.238;10.716;2024-01-07T09:34:14;-1.70;99.90
21417;DHT22;10869;52.238;10.716;2024-01-07T09:40:17;-1.60;99.90
21417;DHT22;10869;52.238;10.716;2024-01-07T09:42:50;-1.60;99.90
21417;DHT22;10869;52.238;10.716;2024-01-07T09:53:11;-1.50;99.90
21417;DHT22;10869;52.238;10.716;2024-01-07T09:58:26;-1.40;99.90
21417;DHT22;10869;52.238;10.716;2024-01-07T10:03:27;-1.30;99.90
21417;DHT22;10869;52.238;10.716;2024-01-07T10:05:56;-1.30;99.90
21417;DHT22;10869;52.238;10.716;2024-01-07T10:08:22;-1.30;99.90
21417;DHT22;10869;52.238;10.716;2024-01-07T10:14:11;-1.30;99.90
21417;DHT22;10869;52.238;10.716;2024-01-07T10:16:36;-1.30;99.90
21417;DHT22;10869;52.238;10.716;2024-01-07T10:19:05;-1.20;99.90
21417;DHT22;10869;52.238;10.716;2024-01-07T10:21:33;-1.30;99.90
21417;DHT22;10869;52.238;10.716;2024-01-07T10:24:11;-1.30;99.90
21417;DHT22;10869;52.238;10.716;2024-01-07T10:26:42;-1.20;99.90
21417;DHT22;10869;52.238;10.716;2024-01-07T10:29:08;-1.20;99.90
21417;DHT22;10869;52.238;10.716;2024-01-07T10:31:35;-1.20;99.90
21417;DHT22;10869;52.238;10.716;2024-01-07T10:34:01;-1.20;99.90
21417;DHT22;10869;52.238;10.716;2024-01-07T10:36:27;-1.20;99.90
21417;DHT22;10869;52.238;10.716;2024-01-07T10:38:53;-1.20;99.90
21417;DHT22;10869;52.238;10.716;2024-01-07T10:41:20;-1.20;99.90
21417;DHT22;10869;52.238;10.716;2024-01-07T10:43:50;-1.20;99.90
21417;DHT22;10869;52.238;10.716;2024-01-07T10:49:50;-1.20;99.90
21417;DHT22;10869;52.238;10.716;2024-01-07T10:55:26;-1.10;99.90
21417;DHT22;10869;52.238;10.716;2024-01-07T10:57:57;-1.10;99.90
21417;DHT22;10869;52.238;10.716;2024-01-07T11:00:23;-1.10;99.90
21417;DHT22;10869;52.238;10.716;2024-01-07T11:03:05;-1.10;99.90
21417;DHT22;10869;52.238;10.716;2024-01-07T11:08:07;-1.10;99.90
21417;DHT22;10869;52.238;10.716;2024-01-07T11:11:00;-1.10;99.90
21417;DHT22;10869;52.238;10.716;2024-01-07T11:13:39;-1.00;99.90
21417;DHT22;10869;52.238;10.716;2024-01-07T11:16:06;-1.00;99.90
21417;DHT22;10869;52.238;10.716;2024-01-07T11:18:38;-1.00;99.90
21417;DHT22;10869;52.238;10.716;2024-01-07T11:21:05;-1.00;99.90
21417;DHT22;10869;52.238;10.716;2024-01-07T11:24:00;-1.00;99.90
21417;DHT22;10869;52.238;10.716;2024-01-07T11:26:28;-1.10;99.90
21417;DHT22;10869;52.238;10.716;2024-01-07T11:34:38;-1.00;99.90
21417;DHT22;10869;52.238;10.716;2024-01-07T11:37:09;-1.00;99.90
21417;DHT22;10869;52.238;10.716;2024-01-07T11:47:21;-0.90;99.90
21417;DHT22;10869;52.238;10.716;2024-01-07T11:49:48;-0.90;99.90
21417;DHT22;10869;52.238;10.716;2024-01-07T11:52:17;-0.90;99.90
21417;DHT22;10869;52.238;10.716;2024-01-07T11:58:05;-0.80;99.90
21417;DHT22;10869;52.238;10.716;2024-01-07T12:00:34;-0.80;99.90
21417;DHT22;10869;52.238;10.716;2024-01-07T12:06:25;-0.80;99.90
21417;DHT22;10869;52.238;10.716;2024-01-07T12:09:01;-0.90;99.90
21417;DHT22;10869;52.238;10.716;2024-01-07T12:11:27;-0.90;99.90
21417;DHT22;10869;52.238;10.716;2024-01-07T12:13:53;-0.90;99.90
21417;DHT22;10869;52.238;10.716;2024-01-07T12:19:26;-0.90;99.90
21417;DHT22;10869;52.238;10.716;2024-01-07T12:22:03;-0.90;99.90
21417;DHT22;10869;52.238;10.716;2024-01-07T12:24:29;-0.80;99.90
21417;DHT22;10869;52.238;10.716;2024-01-07T12:27:04;-0.80;99.90
21417;DHT22;10869;52.238;10.716;2024-01-07T12:29:57;-0.80;99.90
21417;DHT22;10869;52.238;10.716;2024-01-07T12:40:10;-0.80;99.90
21417;DHT22;10869;52.238;10.716;2024-01-07T12:42:41;-0.90;99.90
21417;DHT22;10869;52.238;10.716;2024-01-07T12:45:32;-0.90;99.90
21417;DHT22;10869;52.238;10.716;2024-01-07T12:48:30;-0.90;99.90
21417;DHT22;10869;52.238;10.716;2024-01-07T13:46:25;-0.90;99.90
21417;DHT22;10869;52.238;10.716;2024-01-07T13:48:55;-0.90;99.90
21417;DHT22;10869;52.238;10.716;2024-01-07T13:51:23;-0.90;99.90
21417;DHT22;10869;52.238;10.716;2024-01-07T13:53:52;-0.90;99.90
21417;DHT22;10869;52.238;10.716;2024-01-07T13:59:41;-0.90;99.90
21417;DHT22;10869;52.238;10.716;2024-01-07T14:02:08;-0.90;99.90
21417;DHT22;10869;52.238;10.716;2024-01-07T14:04:35;-0.90;99.90
21417;DHT22;10869;52.238;10.716;2024-01-07T14:07:15;-0.90;99.90
21417;DHT22;10869;52.238;10.716;2024-01-07T14:09:43;-0.90;99.90
21417;DHT22;10869;52.238;10.716;2024-01-07T14:12:09;-0.90;99.90
21417;DHT22;10869;52.238;10.716;2024-01-07T14:14:35;-0.90;99.90
21417;DHT22;10869;52.238;10.716;2024-01-07T14:17:01;-0.80;99.90
21417;DHT22;10869;52.238;10.716;2024-01-07T14:19:31;-0.80;99.90
21417;DHT22;10869;52.238;10.716;2024-01-07T14:22:00;-0.90;99.90
21417;DHT22;10869;52.238;10.716;2024-01-07T14:24:30;-0.90;99.90
21417;DHT22;10869;52.238;10.716;2024-01-07T14:26:56;-0.90;99.90
21417;DHT22;10869;52.238;10.716;2024-01-07T14:34:45;-0.90;99.90
21417;DHT22;10869;52.238;10.716;2024-01-07T14:37:11;-0.90;99.90
21417;DHT22;10869;52.238;10.716;2024-01-07T14:39:37;-0.90;99.90
21417;DHT22;10869;52.238;10.716;2024-01-07T14:45:26;-0.80;99.90
21417;DHT22;10869;52.238;10.716;2024-01-07T14:48:00;-0.80;99.90
21417;DHT22;10869;52.238;10.716;2024-01-07T14:50:53;-0.90;99.90
21417;DHT22;10869;52.238;10.716;2024-01-07T14:53:19;-0.90;99.90
21417;DHT22;10869;52.238;10.716;2024-01-07T14:55:45;-0.90;99.90
21417;DHT22;10869;52.238;10.716;2024-01-07T14:58:11;-0.90;99.90
21417;DHT22;10869;52.238;10.716;2024-01-07T15:00:40;-0.90;99.90
21417;DHT22;10869;52.238;10.716;2024-01-07T15:03:06;-0.90;99.90
21417;DHT22;10869;52.238;10.716;2024-01-07T15:05:32;-0.90;99.90
21417;DHT22;10869;52.238;10.716;2024-01-07T15:07:57;-1.00;99.90
21417;DHT22;10869;52.238;10.716;2024-01-07T15:10:24;-1.00;99.90
21417;DHT22;10869;52.238;10.716;2024-01-07T15:12:50;-1.10;99.90
21417;DHT22;10869;52.238;10.716;2024-01-07T15:15:17;-1.10;99.90
21417;DHT22;10869;52.238;10.716;2024-01-07T15:17:44;-1.00;99.90
21417;DHT22;10869;52.238;10.716;2024-01-07T15:20:23;-1.00;99.90
21417;DHT22;10869;52.238;10.716;2024-01-07T15:23:07;-1.10;99.90
21417;DHT22;10869;52.238;10.716;2024-01-07T15:25:36;-1.10;99.90
21417;DHT22;10869;52.238;10.716;2024-01-07T15:28:02;-1.10;99.90
21417;DHT22;10869;52.238;10.716;2024-01-07T15:30:28;-1.10;99.90
21417;DHT22;10869;52.238;10.716;2024-01-07T15:32:53;-1.10;99.90
21417;DHT22;10869;52.238;10.716;2024-01-07T15:35:19;-1.20;99.90
21417;DHT22;10869;52.238;10.716;2024-01-07T15:37:45;-1.20;99.90
21417;DHT22;10869;52.238;10.716;2024-01-07T15:40:11;-1.20;99.90
21417;DHT22;10869;52.238;10.716;2024-01-07T15:42:38;-1.20;99.90
21417;DHT22;10869;52.238;10.716;2024-01-07T15:45:04;-1.20;99.90
21417;DHT22;10869;52.238;10.716;2024-01-07T15:47:31;-1.20;99.90
21417;DHT22;10869;52.238;10.716;2024-01-07T15:49:59;-1.20;99.90
21417;DHT22;10869;52.238;10.716;2024-01-07T15:52:25;-1.20;99.90
21417;DHT22;10869;52.238;10.716;2024-01-07T15:54:53;-1.30;99.90
21417;DHT22;10869;52.238;10.716;2024-01-07T15:57:19;-1.30;99.90
21417;DHT22;10869;52.238;10.716;2024-01-07T15:59:44;-1.30;99.90
21417;DHT22;10869;52.238;10.716;2024-01-07T16:05:32;-1.30;99.90
21417;DHT22;10869;52.238;10.716;2024-01-07T16:07:59;-1.30;99.90
21417;DHT22;10869;52.238;10.716;2024-01-07T16:10:25;-1.40;99.90
21417;DHT22;10869;52.238;10.716;2024-01-07T16:12:53;-1.30;99.90
21417;DHT22;10869;52.238;10.716;2024-01-07T16:15:19;-1.40;99.90
21417;DHT22;10869;52.238;10.716;2024-01-07T16:17:45;-1.40;99.90
21417;DHT22;10869;52.238;10.716;2024-01-07T16:20:11;-1.30;99.90
21417;DHT22;10869;52.238;10.716;2024-01-07T16:22:38;-1.40;99.90
21417;DHT22;10869;52.238;10.716;2024-01-07T16:25:12;-1.40;99.90
21417;DHT22;10869;52.238;10.716;2024-01-07T16:27:38;-1.40;99.90
21417;DHT22;10869;52.238;10.716;2024-01-07T16:30:06;-1.40;99.90
21417;DHT22;10869;52.238;10.716;2024-01-07T16:32:32;-1.40;99.90
21417;DHT22;10869;52.238;10.716;2024-01-07T16:34:58;-1.40;99.90
21417;DHT22;10869;52.238;10.716;2024-01-07T16:40:45;-1.50;99.90
21417;DHT22;10869;52.238;10.716;2024-01-07T16:43:11;-1.40;99.90
21417;DHT22;10869;52.238;10.716;2024-01-07T16:45:37;-1.40;99.90
21417;DHT22;10869;52.238;10.716;2024-01-07T16:48:03;-1.50;99.90
21417;DHT22;10869;52.238;10.716;2024-01-07T16:50:30;-1.50;99.90
21417;DHT22;10869;52.238;10.716;2024-01-07T16:52:56;-1.50;99.90
21417;DHT22;10869;52.238;10.716;2024-01-07T16:55:22;-1.50;99.90
21417;DHT22;10869;52.238;10.716;2024-01-07T16:57:47;-1.50;99.90
21417;DHT22;10869;52.238;10.716;2024-01-07T17:00:15;-1.50;99.90
21417;DHT22;10869;52.238;10.716;2024-01-07T17:02:41;-1.50;99.90
21417;DHT22;10869;52.238;10.716;2024-01-07T17:05:07;-1.50;99.90
21417;DHT22;10869;52.238;10.716;2024-01-07T17:10:56;-1.40;99.90
21417;DHT22;10869;52.238;10.716;2024-01-07T17:13:23;-1.50;99.90
21417;DHT22;10869;52.238;10.716;2024-01-07T17:15:48;-1.60;99.90
21417;DHT22;10869;52.238;10.716;2024-01-07T17:21:36;-1.50;99.90
21417;DHT22;10869;52.238;10.716;2024-01-07T17:24:02;-1.60;99.90
21417;DHT22;10869;52.238;10.716;2024-01-07T17:29:49;-1.60;99.90
21417;DHT22;10869;52.238;10.716;2024-01-07T17:32:15;-1.60;99.90
21417;DHT22;10869;52.238;10.716;2024-01-07T17:34:42;-1.50;99.90
21417;DHT22;10869;52.238;10.716;2024-01-07T17:40:46;-1.60;99.90
21417;DHT22;10869;52.238;10.716;2024-01-07T17:43:12;-1.60;99.90
21417;DHT22;10869;52.238;10.716;2024-01-07T17:45:38;-1.60;99.90
21417;DHT22;10869;52.238;10.716;2024-01-07T17:48:13;-1.60;99.90
21417;DHT22;10869;52.238;10.716;2024-01-07T17:50:39;-1.60;99.90
21417;DHT22;10869;52.238;10.716;2024-01-07T17:53:09;-1.60;99.90
21417;DHT22;10869;52.238;10.716;2024-01-07T17:55:41;-1.60;99.90
21417;DHT22;10869;52.238;10.716;2024-01-07T18:01:29;-1.60;99.90
21417;DHT22;10869;52.238;10.716;2024-01-07T18:03:57;-1.60;99.90
21417;DHT22;10869;52.238;10.716;2024-01-07T18:06:26;-1.60;99.90
21417;DHT22;10869;52.238;10.716;2024-01-07T18:08:52;-1.60;99.90
21417;DHT22;10869;52.238;10.716;2024-01-07T18:14:52;-1.60;99.90
21417;DHT22;10869;52.238;10.716;2024-01-07T18:20:46;-1.50;99.90
21417;DHT22;10869;52.238;10.716;2024-01-07T18:26:37;-1.60;99.90
21417;DHT22;10869;52.238;10.716;2024-01-07T18:32:26;-1.60;99.90
21417;DHT22;10869;52.238;10.716;2024-01-07T18:38:14;-1.60;99.90
21417;DHT22;10869;52.238;10.716;2024-01-07T18:40:43;-1.60;99.90
21417;DHT22;10869;52.238;10.716;2024-01-07T18:43:12;-1.60;99.90
21417;DHT22;10869;52.238;10.716;2024-01-07T18:49:11;-1.60;99.90
21417;DHT22;10869;52.238;10.716;2024-01-07T18:55:01;-1.60;99.90
21417;DHT22;10869;52.238;10.716;2024-01-07T19:00:51;-1.70;99.90
21417;DHT22;10869;52.238;10.716;2024-01-07T19:03:17;-1.70;99.90
21417;DHT22;10869;52.238;10.716;2024-01-07T19:05:43;-1.70;99.90
21417;DHT22;10869;52.238;10.716;2024-01-07T19:08:10;-1.70;99.90
21417;DHT22;10869;52.238;10.716;2024-01-07T19:10:36;-1.70;99.90
21417;DHT22;10869;52.238;10.716;2024-01-07T19:13:02;-1.70;99.90
21417;DHT22;10869;52.238;10.716;2024-01-07T19:18:53;-1.70;99.90
21417;DHT22;10869;52.238;10.716;2024-01-07T19:24:41;-1.70;99.90
21417;DHT22;10869;52.238;10.716;2024-01-07T19:30:30;-1.70;99.90
21417;DHT22;10869;52.238;10.716;2024-01-07T19:39:29;-1.80;99.90
21417;DHT22;10869;52.238;10.716;2024-01-07T19:45:17;-1.80;99.90